createdAt,value
2017-12-11T00:00:14.916Z,0.00
2017-12-11T00:01:14.896Z,0.00
2017-12-11T00:02:14.858Z,0.00
2017-12-11T00:03:14.848Z,0.00
2017-12-11T00:04:14.833Z,0.00
2017-12-11T00:05:14.811Z,0.00
2017-12-11T00:06:14.781Z,0.00
2017-12-11T00:07:14.779Z,0.00
2017-12-11T00:08:14.744Z,0.00
2017-12-11T00:09:14.733Z,0.00
2017-12-11T00:10:14.717Z,0.00
2017-12-11T00:11:14.695Z,0.00
2017-12-11T00:12:14.661Z,0.00
2017-12-11T00:13:14.725Z,0.00
2017-12-11T00:14:14.644Z,0.00
2017-12-11T00:15:14.612Z,0.00
2017-12-11T00:16:14.584Z,0.00
2017-12-11T00:17:14.569Z,0.00
2017-12-11T00:18:14.555Z,0.00
2017-12-11T00:19:14.528Z,0.00
2017-12-11T00:20:14.522Z,0.00
2017-12-11T00:21:14.487Z,0.00
2017-12-11T00:22:14.479Z,0.00
2017-12-11T00:23:14.459Z,0.00
2017-12-11T00:24:14.441Z,0.00
2017-12-11T00:25:14.421Z,0.00
2017-12-11T00:26:14.403Z,0.00
2017-12-11T00:27:14.378Z,0.00
2017-12-11T00:28:14.352Z,0.00
2017-12-11T00:29:14.346Z,0.00
2017-12-11T00:30:14.321Z,0.00
2017-12-11T00:31:14.298Z,0.00
2017-12-11T00:32:14.290Z,0.00
2017-12-11T00:33:14.250Z,0.00
2017-12-11T00:34:14.243Z,0.00
2017-12-11T00:35:14.221Z,0.00
2017-12-11T00:36:14.194Z,0.00
2017-12-11T00:37:14.193Z,0.00
2017-12-11T00:38:14.154Z,0.00
2017-12-11T00:39:14.132Z,0.00
2017-12-11T00:40:14.130Z,0.00
2017-12-11T00:41:14.194Z,0.00
2017-12-11T00:42:14.088Z,0.00
2017-12-11T00:43:14.053Z,0.00
2017-12-11T00:44:14.046Z,0.00
2017-12-11T00:45:14.027Z,0.00
2017-12-11T00:46:14.011Z,0.00
2017-12-11T00:47:13.985Z,0.00
2017-12-11T00:48:13.975Z,0.00
2017-12-11T00:49:13.952Z,0.00
2017-12-11T00:50:13.934Z,0.00
2017-12-11T00:51:13.912Z,0.00
2017-12-11T00:52:13.891Z,0.00
2017-12-11T00:53:13.863Z,0.00
2017-12-11T00:54:13.856Z,0.00
2017-12-11T00:55:13.824Z,0.00
2017-12-11T00:56:13.806Z,0.00
2017-12-11T00:57:13.786Z,0.00
2017-12-11T00:58:13.777Z,0.00
2017-12-11T00:59:13.754Z,0.00
2017-12-11T01:00:13.729Z,0.00
2017-12-11T01:01:13.727Z,0.00
2017-12-11T01:02:13.686Z,0.00
2017-12-11T01:03:13.673Z,0.00
2017-12-11T01:04:13.661Z,0.00
2017-12-11T01:05:13.643Z,0.00
2017-12-11T01:06:13.626Z,0.00
2017-12-11T01:07:13.590Z,0.00
2017-12-11T01:08:13.576Z,0.00
2017-12-11T01:09:13.553Z,0.00
2017-12-11T01:10:13.536Z,0.00
2017-12-11T01:11:13.527Z,0.00
2017-12-11T01:12:13.512Z,0.00
2017-12-11T01:13:13.475Z,0.00
2017-12-11T01:14:13.458Z,0.00
2017-12-11T01:15:13.438Z,0.00
2017-12-11T01:16:13.425Z,0.00
2017-12-11T01:17:13.411Z,0.00
2017-12-11T01:18:13.382Z,0.00
2017-12-11T01:19:13.370Z,0.00
2017-12-11T01:20:13.355Z,0.00
2017-12-11T01:21:13.321Z,0.00
2017-12-11T01:22:13.312Z,0.00
2017-12-11T01:23:13.289Z,0.00
2017-12-11T01:24:13.263Z,0.00
2017-12-11T01:25:13.259Z,0.00
2017-12-11T01:26:13.224Z,0.00
2017-12-11T01:27:13.215Z,0.00
2017-12-11T01:28:13.275Z,0.00
2017-12-11T01:29:13.177Z,0.00
2017-12-11T01:30:13.159Z,0.00
2017-12-11T01:31:13.133Z,0.00
2017-12-11T01:32:13.198Z,0.00
2017-12-11T01:33:13.089Z,0.00
2017-12-11T01:34:13.068Z,0.00
2017-12-11T01:35:13.057Z,0.00
2017-12-11T01:36:13.038Z,0.00
2017-12-11T01:37:13.009Z,0.00
2017-12-11T01:38:13.005Z,0.00
2017-12-11T01:39:12.981Z,0.00
2017-12-11T01:40:12.951Z,0.00
2017-12-11T01:41:12.929Z,0.00
2017-12-11T01:42:12.929Z,0.00
2017-12-11T01:43:12.896Z,0.00
2017-12-11T01:44:12.887Z,0.00
2017-12-11T01:45:12.872Z,0.00
2017-12-11T01:46:12.838Z,0.00
2017-12-11T01:47:12.829Z,0.00
2017-12-11T01:48:12.810Z,0.00
2017-12-11T01:49:12.789Z,0.00
2017-12-11T01:50:12.777Z,0.00
2017-12-11T01:51:12.738Z,0.00
2017-12-11T01:52:12.728Z,0.00
2017-12-11T01:53:12.703Z,0.00
2017-12-11T01:54:12.697Z,0.00
2017-12-11T01:55:12.673Z,0.00
2017-12-11T01:56:12.649Z,0.00
2017-12-11T01:57:12.637Z,0.00
2017-12-11T01:58:12.618Z,0.00
2017-12-11T01:59:12.584Z,0.00
2017-12-11T02:00:12.570Z,0.00
2017-12-11T02:01:12.551Z,0.00
2017-12-11T02:02:12.536Z,0.00
2017-12-11T02:03:12.515Z,0.00
2017-12-11T02:04:12.485Z,0.00
2017-12-11T02:05:12.472Z,0.00
2017-12-11T02:06:12.441Z,0.00
2017-12-11T02:07:12.436Z,0.00
2017-12-11T02:08:12.412Z,0.00
2017-12-11T02:09:12.391Z,0.00
2017-12-11T02:10:12.382Z,0.00
2017-12-11T02:11:12.365Z,0.00
2017-12-11T02:12:12.337Z,0.00
2017-12-11T02:13:12.315Z,0.00
2017-12-11T02:14:12.284Z,0.00
2017-12-11T02:15:12.586Z,0.00
2017-12-11T02:16:12.263Z,0.00
2017-12-11T02:17:12.225Z,0.00
2017-12-11T02:18:12.217Z,0.00
2017-12-11T02:19:12.184Z,0.00
2017-12-11T02:20:12.171Z,0.00
2017-12-11T02:21:12.315Z,0.00
2017-12-11T02:22:12.137Z,0.00
2017-12-11T02:23:12.121Z,0.00
2017-12-11T02:24:12.090Z,0.00
2017-12-11T02:25:12.083Z,0.00
2017-12-11T02:26:12.050Z,0.00
2017-12-11T02:27:12.034Z,0.00
2017-12-11T02:28:12.015Z,0.00
2017-12-11T02:29:12.000Z,0.00
2017-12-11T02:30:11.971Z,0.00
2017-12-11T02:31:11.969Z,0.00
2017-12-11T02:32:11.944Z,0.00
2017-12-11T02:33:11.910Z,0.00
2017-12-11T02:34:11.900Z,0.00
2017-12-11T02:35:11.882Z,0.00
2017-12-11T02:36:11.868Z,0.00
2017-12-11T02:37:11.834Z,0.00
2017-12-11T02:38:11.824Z,0.00
2017-12-11T02:39:11.794Z,0.00
2017-12-11T02:40:11.776Z,0.00
2017-12-11T02:41:11.760Z,0.00
2017-12-11T02:42:11.734Z,0.00
2017-12-11T02:43:11.720Z,0.00
2017-12-11T02:44:11.705Z,0.00
2017-12-11T02:45:11.688Z,0.00
2017-12-11T02:46:11.661Z,0.00
2017-12-11T02:47:11.648Z,0.00
2017-12-11T02:48:11.623Z,0.00
2017-12-11T02:49:11.606Z,0.00
2017-12-11T02:50:12.130Z,0.00
2017-12-11T02:51:11.557Z,0.00
2017-12-11T02:52:11.542Z,0.00
2017-12-11T02:53:11.523Z,0.00
2017-12-11T02:54:11.507Z,0.00
2017-12-11T02:55:11.476Z,0.00
2017-12-11T02:56:11.453Z,0.00
2017-12-11T02:57:11.447Z,0.00
2017-12-11T02:58:11.412Z,0.00
2017-12-11T02:59:11.399Z,0.00
2017-12-11T03:00:11.387Z,0.00
2017-12-11T03:01:11.364Z,0.00
2017-12-11T03:02:11.350Z,0.00
2017-12-11T03:03:11.314Z,0.00
2017-12-11T03:04:11.302Z,0.00
2017-12-11T03:05:11.274Z,0.00
2017-12-11T03:06:11.270Z,0.00
2017-12-11T03:07:11.247Z,0.00
2017-12-11T03:08:11.211Z,0.00
2017-12-11T03:09:11.196Z,0.00
2017-12-11T03:10:11.170Z,0.00
2017-12-11T03:11:11.170Z,0.00
2017-12-11T03:12:11.145Z,0.00
2017-12-11T03:13:11.124Z,0.00
2017-12-11T03:14:11.104Z,0.00
2017-12-11T03:15:11.074Z,0.00
2017-12-11T03:16:11.064Z,0.00
2017-12-11T03:17:11.046Z,0.00
2017-12-11T03:18:11.024Z,0.00
2017-12-11T03:19:11.006Z,0.00
2017-12-11T03:20:10.984Z,0.00
2017-12-11T03:21:10.964Z,0.00
2017-12-11T03:22:10.947Z,0.00
2017-12-11T03:23:10.926Z,0.00
2017-12-11T03:24:11.027Z,0.00
2017-12-11T03:25:10.891Z,0.00
2017-12-11T03:26:10.858Z,0.00
2017-12-11T03:27:10.850Z,0.00
2017-12-11T03:28:10.823Z,0.00
2017-12-11T03:29:10.803Z,0.00
2017-12-11T03:30:10.787Z,0.00
2017-12-11T03:31:10.772Z,0.00
2017-12-11T03:32:10.735Z,0.00
2017-12-11T03:33:10.723Z,0.00
2017-12-11T03:34:10.704Z,0.00
2017-12-11T03:35:10.685Z,0.00
2017-12-11T03:36:10.674Z,0.00
2017-12-11T03:37:10.652Z,0.00
2017-12-11T03:38:10.626Z,0.00
2017-12-11T03:39:10.603Z,0.00
2017-12-11T03:40:10.575Z,0.00
2017-12-11T03:41:10.552Z,0.00
2017-12-11T03:42:10.543Z,0.00
2017-12-11T03:43:10.525Z,0.00
2017-12-11T03:44:10.509Z,0.00
2017-12-11T03:45:10.482Z,0.00
2017-12-11T03:46:10.450Z,0.00
2017-12-11T03:47:10.446Z,0.00
2017-12-11T03:48:10.407Z,0.00
2017-12-11T03:49:10.406Z,0.00
2017-12-11T03:50:10.376Z,0.00
2017-12-11T03:51:10.363Z,0.00
2017-12-11T03:52:10.335Z,0.00
2017-12-11T03:53:10.317Z,0.00
2017-12-11T03:54:10.291Z,0.00
2017-12-11T03:55:10.269Z,0.00
2017-12-11T03:56:10.245Z,0.00
2017-12-11T03:57:10.232Z,0.00
2017-12-11T03:58:10.207Z,0.00
2017-12-11T03:59:10.199Z,0.00
2017-12-11T04:00:10.173Z,0.00
2017-12-11T04:01:10.157Z,0.00
2017-12-11T04:02:10.133Z,0.00
2017-12-11T04:03:10.106Z,0.00
2017-12-11T04:04:10.101Z,0.00
2017-12-11T04:05:10.069Z,0.00
2017-12-11T04:06:10.060Z,0.00
2017-12-11T04:07:10.048Z,0.00
2017-12-11T04:08:10.022Z,0.00
2017-12-11T04:09:09.990Z,0.00
2017-12-11T04:10:09.978Z,0.00
2017-12-11T04:11:09.944Z,0.00
2017-12-11T04:12:09.942Z,0.00
2017-12-11T04:13:09.909Z,0.00
2017-12-11T04:14:09.888Z,0.00
2017-12-11T04:15:09.885Z,0.00
2017-12-11T04:16:09.860Z,0.00
2017-12-11T04:17:09.830Z,0.00
2017-12-11T04:18:09.820Z,0.00
2017-12-11T04:19:09.801Z,0.00
2017-12-11T04:20:09.765Z,0.00
2017-12-11T04:21:09.759Z,0.00
2017-12-11T04:22:09.806Z,0.00
2017-12-11T04:23:09.708Z,0.00
2017-12-11T04:24:09.685Z,0.00
2017-12-11T04:25:09.675Z,0.00
2017-12-11T04:26:09.658Z,0.00
2017-12-11T04:27:09.637Z,0.00
2017-12-11T04:28:09.607Z,0.00
2017-12-11T04:29:09.581Z,0.00
2017-12-11T04:30:09.567Z,0.00
2017-12-11T04:31:09.562Z,0.00
2017-12-11T04:32:09.533Z,0.00
2017-12-11T04:33:09.515Z,0.00
2017-12-11T04:34:09.483Z,0.00
2017-12-11T04:35:09.479Z,0.00
2017-12-11T04:36:09.457Z,0.00
2017-12-11T04:37:09.422Z,0.00
2017-12-11T04:38:09.414Z,0.00
2017-12-11T04:39:09.392Z,0.00
2017-12-11T04:40:09.370Z,0.00
2017-12-11T04:41:09.345Z,0.00
2017-12-11T04:42:09.333Z,0.00
2017-12-11T04:43:09.298Z,0.00
2017-12-11T04:44:09.287Z,0.00
2017-12-11T04:45:09.266Z,0.00
2017-12-11T04:46:09.251Z,0.00
2017-12-11T04:47:09.236Z,0.00
2017-12-11T04:48:09.213Z,0.00
2017-12-11T04:49:09.179Z,0.00
2017-12-11T04:50:09.697Z,0.00
2017-12-11T04:51:09.143Z,0.00
2017-12-11T04:52:09.130Z,0.00
2017-12-11T04:53:09.114Z,0.00
2017-12-11T04:54:09.077Z,0.00
2017-12-11T04:55:09.068Z,0.00
2017-12-11T04:56:09.038Z,0.00
2017-12-11T04:57:09.024Z,0.00
2017-12-11T04:58:09.007Z,0.00
2017-12-11T04:59:08.980Z,0.00
2017-12-11T05:00:08.963Z,0.00
2017-12-11T05:01:08.943Z,0.00
2017-12-11T05:02:08.921Z,0.00
2017-12-11T05:03:08.890Z,0.00
2017-12-11T05:04:08.870Z,0.00
2017-12-11T05:05:08.851Z,0.00
2017-12-11T05:06:08.843Z,0.00
2017-12-11T05:07:08.816Z,0.00
2017-12-11T05:08:08.795Z,0.00
2017-12-11T05:09:08.777Z,0.00
2017-12-11T05:10:08.740Z,0.00
2017-12-11T05:11:08.733Z,0.00
2017-12-11T05:12:08.717Z,0.00
2017-12-11T05:13:08.698Z,0.00
2017-12-11T05:14:08.663Z,0.00
2017-12-11T05:15:08.644Z,0.00
2017-12-11T05:16:08.634Z,0.00
2017-12-11T05:17:08.687Z,0.00
2017-12-11T05:18:08.597Z,0.00
2017-12-11T05:19:08.561Z,0.00
2017-12-11T05:20:08.554Z,0.00
2017-12-11T05:21:08.524Z,0.00
2017-12-11T05:22:08.493Z,0.00
2017-12-11T05:23:08.482Z,0.00
2017-12-11T05:24:08.465Z,0.00
2017-12-11T05:25:08.444Z,0.00
2017-12-11T05:26:08.431Z,0.00
2017-12-11T05:27:08.393Z,0.00
2017-12-11T05:28:08.483Z,0.00
2017-12-11T05:29:08.352Z,0.00
2017-12-11T05:30:08.344Z,0.00
2017-12-11T05:31:08.319Z,0.00
2017-12-11T05:33:52.026Z,0.00
2017-12-11T05:34:52.000Z,0.00
2017-12-11T05:35:51.980Z,0.00
2017-12-11T05:36:51.962Z,0.00
2017-12-11T05:37:51.942Z,0.00
2017-12-11T05:38:51.943Z,0.00
2017-12-11T05:39:51.900Z,0.00
2017-12-11T05:40:51.880Z,0.00
2017-12-11T05:41:51.847Z,0.00
2017-12-11T05:42:51.831Z,0.00
2017-12-11T05:43:51.817Z,0.00
2017-12-11T05:44:51.795Z,0.00
2017-12-11T05:45:51.775Z,0.00
2017-12-11T05:46:51.759Z,0.00
2017-12-11T05:47:51.730Z,0.00
2017-12-11T05:48:51.714Z,0.00
2017-12-11T05:49:51.679Z,0.00
2017-12-11T05:50:51.671Z,0.00
2017-12-11T05:51:51.653Z,0.00
2017-12-11T05:52:51.623Z,0.00
2017-12-11T05:53:51.611Z,0.00
2017-12-11T05:54:51.577Z,0.00
2017-12-11T05:55:51.558Z,0.00
2017-12-11T05:56:51.547Z,0.00
2017-12-11T05:57:51.528Z,0.00
2017-12-11T05:58:51.512Z,0.00
2017-12-11T05:59:51.482Z,0.00
2017-12-11T06:00:51.467Z,0.00
2017-12-11T06:01:51.433Z,0.00
2017-12-11T06:02:51.409Z,0.00
2017-12-11T06:03:51.402Z,0.00
2017-12-11T06:04:51.379Z,0.00
2017-12-11T06:05:51.900Z,0.00
2017-12-11T06:06:51.338Z,0.00
2017-12-11T06:07:51.324Z,0.00
2017-12-11T06:08:51.302Z,0.00
2017-12-11T06:09:51.277Z,0.00
2017-12-11T06:10:51.246Z,0.00
2017-12-11T06:11:51.238Z,0.00
2017-12-11T06:12:51.208Z,0.00
2017-12-11T06:13:51.194Z,0.00
2017-12-11T06:14:51.170Z,0.00
2017-12-11T06:15:51.142Z,0.00
2017-12-11T06:16:51.130Z,0.00
2017-12-11T06:17:51.104Z,0.00
2017-12-11T06:18:51.090Z,0.00
2017-12-11T06:19:51.062Z,0.00
2017-12-11T06:20:51.041Z,0.00
2017-12-11T06:21:51.033Z,0.00
2017-12-11T06:22:51.000Z,0.00
2017-12-11T06:23:50.987Z,0.00
2017-12-11T06:24:50.959Z,0.00
2017-12-11T06:25:50.953Z,0.00
2017-12-11T06:26:50.916Z,0.00
2017-12-11T06:27:50.903Z,0.00
2017-12-11T06:28:51.423Z,0.00
2017-12-11T06:29:50.865Z,0.00
2017-12-11T06:30:50.838Z,0.00
2017-12-11T06:31:50.823Z,0.00
2017-12-11T06:32:50.793Z,0.00
2017-12-11T06:33:50.776Z,0.00
2017-12-11T06:34:50.759Z,0.00
2017-12-11T06:35:50.734Z,0.00
2017-12-11T06:36:50.707Z,0.00
2017-12-11T06:37:50.679Z,0.00
2017-12-11T06:38:50.664Z,0.00
2017-12-11T06:39:50.642Z,0.00
2017-12-11T06:40:50.626Z,0.00
2017-12-11T06:41:50.610Z,0.00
2017-12-11T06:42:50.578Z,0.00
2017-12-11T06:43:50.575Z,0.00
2017-12-11T06:44:50.538Z,0.00
2017-12-11T06:45:50.519Z,0.00
2017-12-11T06:46:50.510Z,0.00
2017-12-11T06:47:50.491Z,0.00
2017-12-11T06:48:50.460Z,0.00
2017-12-11T06:49:50.453Z,0.00
2017-12-11T06:50:50.410Z,0.00
2017-12-11T06:51:50.393Z,0.00
2017-12-11T06:52:50.384Z,0.00
2017-12-11T06:53:50.371Z,0.00
2017-12-11T06:54:50.344Z,0.00
2017-12-11T06:55:50.313Z,0.00
2017-12-11T06:56:50.301Z,0.00
2017-12-11T06:57:50.281Z,0.00
2017-12-11T06:58:50.264Z,0.00
2017-12-11T06:59:50.244Z,0.00
2017-12-11T07:00:50.205Z,0.00
2017-12-11T07:01:50.192Z,0.00
2017-12-11T07:02:50.169Z,0.00
2017-12-11T07:03:50.156Z,0.00
2017-12-11T07:04:50.121Z,0.00
2017-12-11T07:05:50.104Z,0.00
2017-12-11T07:06:50.078Z,0.00
2017-12-11T07:07:50.055Z,0.00
2017-12-11T07:08:50.032Z,0.00
2017-12-11T07:09:50.026Z,0.00
2017-12-11T07:10:49.993Z,0.00
2017-12-11T07:11:49.972Z,0.00
2017-12-11T07:12:50.489Z,0.00
2017-12-11T07:13:49.946Z,0.00
2017-12-11T07:14:49.913Z,0.00
2017-12-11T07:15:49.901Z,0.00
2017-12-11T07:16:49.880Z,0.00
2017-12-11T07:17:49.862Z,0.00
2017-12-11T07:18:49.838Z,0.00
2017-12-11T07:19:49.806Z,0.00
2017-12-11T07:20:49.785Z,0.00
2017-12-11T07:21:49.774Z,0.00
2017-12-11T07:22:49.754Z,0.00
2017-12-11T07:23:49.727Z,0.00
2017-12-11T07:24:49.714Z,0.00
2017-12-11T07:25:49.693Z,0.00
2017-12-11T07:26:50.208Z,0.00
2017-12-11T07:27:49.652Z,0.00
2017-12-11T07:28:49.630Z,0.00
2017-12-11T07:29:49.610Z,0.00
2017-12-11T07:30:49.580Z,0.00
2017-12-11T07:31:49.569Z,0.00
2017-12-11T07:32:49.532Z,0.00
2017-12-11T07:33:49.512Z,0.00
2017-12-11T07:34:49.509Z,0.00
2017-12-11T07:35:49.489Z,0.00
2017-12-11T07:36:49.459Z,0.00
2017-12-11T07:37:49.445Z,0.00
2017-12-11T07:38:49.416Z,0.00
2017-12-11T07:39:49.395Z,0.00
2017-12-11T07:40:49.380Z,0.00
2017-12-11T07:41:49.353Z,0.00
2017-12-11T07:42:49.342Z,0.00
2017-12-11T07:43:49.306Z,0.00
2017-12-11T07:44:49.298Z,4.00
2017-12-11T07:45:49.260Z,0.00
2017-12-11T07:46:49.236Z,4.00
2017-12-11T07:47:49.217Z,4.00
2017-12-11T07:48:49.210Z,4.00
2017-12-11T07:49:49.187Z,4.00
2017-12-11T07:50:49.171Z,8.00
2017-12-11T07:51:49.135Z,8.00
2017-12-11T07:52:49.125Z,8.00
2017-12-11T07:53:49.105Z,12.00
2017-12-11T07:54:49.068Z,20.00
2017-12-11T07:55:49.057Z,24.00
2017-12-11T07:56:49.037Z,28.00
2017-12-11T07:57:49.016Z,36.00
2017-12-11T07:58:48.990Z,48.00
2017-12-11T07:59:48.978Z,56.00
2017-12-11T08:00:48.954Z,76.00
2017-12-11T08:01:48.935Z,92.00
2017-12-11T08:02:48.911Z,112.00
2017-12-11T08:03:48.899Z,140.00
2017-12-11T08:04:48.864Z,172.00
2017-12-11T08:05:48.857Z,208.00
2017-12-11T08:06:48.827Z,252.00
2017-12-11T08:07:48.807Z,300.00
2017-12-11T08:08:48.788Z,356.00
2017-12-11T08:09:48.772Z,420.00
2017-12-11T08:10:48.749Z,492.00
2017-12-11T08:11:48.723Z,568.00
2017-12-11T08:12:48.707Z,648.00
2017-12-11T08:13:48.684Z,732.00
2017-12-11T08:14:48.664Z,824.00
2017-12-11T08:15:48.651Z,920.00
2017-12-11T08:16:48.611Z,1016.00
2017-12-11T08:17:48.597Z,1128.00
2017-12-11T08:18:48.571Z,1244.00
2017-12-11T08:19:48.556Z,1372.00
2017-12-11T08:20:48.534Z,1504.00
2017-12-11T08:21:48.592Z,1648.00
2017-12-11T08:22:48.498Z,1792.00
2017-12-11T08:23:48.478Z,1952.00
2017-12-11T08:24:48.447Z,2108.00
2017-12-11T08:25:49.223Z,2276.00
2017-12-11T08:26:48.406Z,2432.00
2017-12-11T08:27:48.381Z,2596.00
2017-12-11T08:28:48.371Z,2768.00
2017-12-11T08:29:48.341Z,2948.00
2017-12-11T08:30:48.335Z,3120.00
2017-12-11T08:31:48.303Z,3300.00
2017-12-11T08:32:48.277Z,3464.00
2017-12-11T08:33:48.263Z,3604.00
2017-12-11T08:34:48.243Z,3776.00
2017-12-11T08:35:48.230Z,3948.00
2017-12-11T08:36:48.198Z,4124.00
2017-12-11T08:37:48.173Z,4324.00
2017-12-11T08:38:48.166Z,4484.00
2017-12-11T08:39:48.148Z,4652.00
2017-12-11T08:40:48.128Z,4848.00
2017-12-11T08:41:48.110Z,5064.00
2017-12-11T08:43:21.280Z,5308.00
2017-12-11T08:43:48.065Z,5476.00
2017-12-11T08:44:48.047Z,5644.00
2017-12-11T08:45:48.020Z,5856.00
2017-12-11T08:46:47.991Z,6068.00
2017-12-11T08:47:48.065Z,6328.00
2017-12-11T08:48:47.962Z,6548.00
2017-12-11T08:49:47.946Z,6804.00
2017-12-11T08:50:47.916Z,6988.00
2017-12-11T08:51:47.903Z,7216.00
2017-12-11T08:52:47.885Z,7568.00
2017-12-11T08:53:47.865Z,7772.00
2017-12-11T08:54:47.830Z,7940.00
2017-12-11T08:55:47.812Z,8192.00
2017-12-11T08:56:47.795Z,8400.00
2017-12-11T08:57:47.795Z,8516.00
2017-12-11T08:58:47.766Z,8744.00
2017-12-11T08:59:47.738Z,9004.00
2017-12-11T09:00:47.733Z,9124.00
2017-12-11T09:01:47.718Z,9104.00
2017-12-11T09:02:47.687Z,9124.00
2017-12-11T09:03:47.668Z,9380.00
2017-12-11T09:04:47.658Z,9680.00
2017-12-11T09:05:47.644Z,9736.00
2017-12-11T09:06:47.605Z,9964.00
2017-12-11T09:07:47.601Z,10252.00
2017-12-11T09:08:47.583Z,10460.00
2017-12-11T09:09:47.557Z,10824.00
2017-12-11T09:10:47.536Z,11160.00
2017-12-11T09:11:47.517Z,11384.00
2017-12-11T09:12:47.509Z,11484.00
2017-12-11T09:13:47.482Z,11784.00
2017-12-11T09:14:47.473Z,12020.00
2017-12-11T09:15:47.456Z,12244.00
2017-12-11T09:16:47.438Z,12332.00
2017-12-11T09:17:47.407Z,12468.00
2017-12-11T09:18:47.404Z,12628.00
2017-12-11T09:19:47.392Z,12836.00
2017-12-11T09:20:47.373Z,13120.00
2017-12-11T09:21:47.352Z,13388.00
2017-12-11T09:22:47.325Z,13732.00
2017-12-11T09:23:47.312Z,14056.00
2017-12-11T09:24:47.302Z,14148.00
2017-12-11T09:25:47.286Z,14204.00
2017-12-11T09:26:47.258Z,14332.00
2017-12-11T09:27:47.240Z,14580.00
2017-12-11T09:28:47.231Z,14908.00
2017-12-11T09:29:47.741Z,14972.00
2017-12-11T09:30:47.202Z,15032.00
2017-12-11T09:31:47.183Z,15104.00
2017-12-11T09:32:47.172Z,15164.00
2017-12-11T09:33:47.137Z,15216.00
2017-12-11T09:34:47.138Z,15604.00
2017-12-11T09:35:47.125Z,15676.00
2017-12-11T09:36:47.104Z,15488.00
2017-12-11T09:37:47.077Z,15676.00
2017-12-11T09:38:47.066Z,15816.00
2017-12-11T09:39:47.042Z,15836.00
2017-12-11T09:40:47.024Z,15852.00
2017-12-11T09:41:47.015Z,15780.00
2017-12-11T09:42:47.007Z,15848.00
2017-12-11T09:43:46.985Z,16080.00
2017-12-11T09:44:46.960Z,16544.00
2017-12-11T09:45:46.962Z,16704.00
2017-12-11T09:46:47.014Z,16960.00
2017-12-11T09:47:46.989Z,17376.00
2017-12-11T09:48:46.899Z,17696.00
2017-12-11T09:49:46.895Z,18016.00
2017-12-11T09:50:46.878Z,18272.00
2017-12-11T09:51:46.872Z,18688.00
2017-12-11T09:52:46.850Z,19200.00
2017-12-11T09:53:46.830Z,19520.00
2017-12-11T09:54:46.822Z,19904.00
2017-12-11T09:55:46.810Z,20384.00
2017-12-11T09:56:46.780Z,20512.00
2017-12-11T09:57:46.782Z,21216.00
2017-12-11T09:58:46.763Z,21824.00
2017-12-11T09:59:46.744Z,22048.00
2017-12-11T10:00:46.733Z,22432.00
2017-12-11T10:01:46.720Z,23200.00
2017-12-11T10:02:46.688Z,23424.00
2017-12-11T10:03:46.688Z,22848.00
2017-12-11T10:04:46.663Z,23072.00
2017-12-11T10:05:46.647Z,23968.00
2017-12-11T10:06:46.633Z,25344.00
2017-12-11T10:07:46.629Z,25920.00
2017-12-11T10:08:46.617Z,26624.00
2017-12-11T10:09:46.592Z,27072.00
2017-12-11T10:10:46.586Z,27424.00
2017-12-11T10:11:46.561Z,28192.00
2017-12-11T10:12:47.083Z,28064.00
2017-12-11T10:13:46.597Z,28896.00
2017-12-11T10:14:46.529Z,30080.00
2017-12-11T10:15:46.516Z,30272.00
2017-12-11T10:16:46.585Z,29312.00
2017-12-11T10:17:46.472Z,29984.00
2017-12-11T10:18:46.461Z,30304.00
2017-12-11T10:19:46.461Z,29536.00
2017-12-11T10:20:46.444Z,29568.00
2017-12-11T10:21:46.431Z,29856.00
2017-12-11T10:22:46.418Z,28416.00
2017-12-11T10:23:46.398Z,28160.00
2017-12-11T10:24:46.388Z,28000.00
2017-12-11T10:25:46.361Z,26592.00
2017-12-11T10:26:46.356Z,26880.00
2017-12-11T10:27:46.346Z,26400.00
2017-12-11T10:28:46.316Z,25984.00
2017-12-11T10:29:46.326Z,27456.00
2017-12-11T10:30:46.310Z,28992.00
2017-12-11T10:31:46.289Z,29056.00
2017-12-11T10:32:46.274Z,29696.00
2017-12-11T10:33:46.261Z,28960.00
2017-12-11T10:34:46.230Z,29760.00
2017-12-11T10:35:46.225Z,30464.00
2017-12-11T10:36:46.217Z,31328.00
2017-12-11T10:37:46.190Z,31744.00
2017-12-11T10:38:46.174Z,32192.00
2017-12-11T10:39:46.163Z,32704.00
2017-12-11T10:40:46.161Z,33088.00
2017-12-11T10:41:46.136Z,33440.00
2017-12-11T10:42:46.163Z,33920.00
2017-12-11T10:43:46.116Z,34208.00
2017-12-11T10:45:19.300Z,34656.00
2017-12-11T10:45:46.092Z,35488.00
2017-12-11T10:46:46.082Z,35072.00
2017-12-11T10:47:46.065Z,36384.00
2017-12-11T10:48:46.035Z,36896.00
2017-12-11T10:49:46.038Z,36192.00
2017-12-11T10:50:46.025Z,36640.00
2017-12-11T10:51:45.997Z,37408.00
2017-12-11T10:52:46.007Z,37280.00
2017-12-11T10:53:45.982Z,36704.00
2017-12-11T10:54:45.969Z,37408.00
2017-12-11T10:55:45.960Z,39808.00
2017-12-11T10:56:45.930Z,40160.00
2017-12-11T10:57:45.927Z,40992.00
2017-12-11T10:58:45.910Z,42048.00
2017-12-11T10:59:45.903Z,42880.00
2017-12-11T11:00:45.899Z,43136.00
2017-12-11T11:01:46.269Z,43968.00
2017-12-11T11:02:45.858Z,44736.00
2017-12-11T11:03:45.863Z,45888.00
2017-12-11T11:04:45.844Z,46240.00
2017-12-11T11:05:45.833Z,46528.00
2017-12-11T11:06:45.816Z,47200.00
2017-12-11T11:07:45.814Z,47648.00
2017-12-11T11:08:45.801Z,48512.00
2017-12-11T11:09:45.785Z,49920.00
2017-12-11T11:10:45.773Z,50560.00
2017-12-11T11:11:45.763Z,50752.00
2017-12-11T11:12:45.758Z,50848.00
2017-12-11T11:13:45.738Z,51296.00
2017-12-11T11:14:45.730Z,52672.00
2017-12-11T11:15:45.717Z,52896.00
2017-12-11T11:16:45.696Z,52896.00
2017-12-11T11:17:45.681Z,53760.00
2017-12-11T11:18:45.683Z,54720.00
2017-12-11T11:19:45.666Z,56128.00
2017-12-11T11:20:45.656Z,57920.00
2017-12-11T11:21:45.646Z,57920.00
2017-12-11T11:22:45.622Z,57888.00
2017-12-11T11:23:45.626Z,58944.00
2017-12-11T11:24:45.618Z,57504.00
2017-12-11T11:25:46.026Z,57664.00
2017-12-11T11:26:45.579Z,59104.00
2017-12-11T11:27:45.673Z,58688.00
2017-12-11T11:28:45.627Z,58400.00
2017-12-11T11:29:45.972Z,58368.00
2017-12-11T11:30:45.551Z,61248.00
2017-12-11T11:31:45.538Z,61504.00
2017-12-11T11:32:45.529Z,61056.00
2017-12-11T11:33:45.528Z,62272.00
2017-12-11T11:34:45.499Z,62240.00
2017-12-11T11:35:45.497Z,62944.00
2017-12-11T11:36:45.483Z,65056.00
2017-12-11T11:37:45.483Z,65888.00
2017-12-11T11:38:45.472Z,64416.00
2017-12-11T11:39:45.448Z,63168.00
2017-12-11T11:40:45.449Z,63264.00
2017-12-11T11:41:45.432Z,66528.00
2017-12-11T11:42:45.424Z,67264.00
2017-12-11T11:43:45.422Z,68000.00
2017-12-11T11:44:45.412Z,67872.00
2017-12-11T11:45:45.407Z,71072.00
2017-12-11T11:46:45.398Z,70720.00
2017-12-11T11:47:45.380Z,72640.00
2017-12-11T11:48:45.379Z,76288.00
2017-12-11T11:49:45.357Z,75744.00
2017-12-11T11:50:45.353Z,72640.00
2017-12-11T11:51:45.341Z,72640.00
2017-12-11T11:52:45.331Z,72544.00
2017-12-11T11:53:45.321Z,73184.00
2017-12-11T11:54:45.328Z,74016.00
2017-12-11T11:55:45.312Z,75104.00
2017-12-11T11:56:45.288Z,76000.00
2017-12-11T11:57:45.291Z,74880.00
2017-12-11T11:58:45.277Z,74880.00
2017-12-11T11:59:45.261Z,76640.00
2017-12-11T12:00:45.264Z,77248.00
2017-12-11T12:01:45.253Z,77632.00
2017-12-11T12:02:45.233Z,77984.00
2017-12-11T12:03:45.232Z,78944.00
2017-12-11T12:04:45.230Z,80544.00
2017-12-11T12:05:45.217Z,82784.00
2017-12-11T12:06:45.196Z,80448.00
2017-12-11T12:07:45.200Z,80704.00
2017-12-11T12:08:45.172Z,84224.00
2017-12-11T12:09:45.168Z,86112.00
2017-12-11T12:10:45.157Z,86944.00
2017-12-11T12:11:45.161Z,85600.00
2017-12-11T12:12:45.150Z,84192.00
2017-12-11T12:13:45.123Z,83456.00
2017-12-11T12:14:45.125Z,82688.00
2017-12-11T12:15:45.130Z,86080.00
2017-12-11T12:16:45.113Z,89056.00
2017-12-11T12:17:45.093Z,89536.00
2017-12-11T12:18:45.250Z,89440.00
2017-12-11T12:19:45.098Z,94080.00
2017-12-11T12:21:18.279Z,93088.00
2017-12-11T12:21:45.077Z,90464.00
2017-12-11T12:22:45.060Z,88640.00
2017-12-11T12:23:45.054Z,90080.00
2017-12-11T12:24:45.045Z,91136.00
2017-12-11T12:25:45.029Z,91584.00
2017-12-11T12:26:45.028Z,92352.00
2017-12-11T12:27:45.011Z,94304.00
2017-12-11T12:28:45.001Z,96384.00
2017-12-11T12:29:45.013Z,94624.00
2017-12-11T12:30:44.987Z,93504.00
2017-12-11T12:31:44.988Z,90304.00
2017-12-11T12:32:44.987Z,90048.00
2017-12-11T12:33:44.959Z,91936.00
2017-12-11T12:34:44.973Z,91392.00
2017-12-11T12:35:44.943Z,90592.00
2017-12-11T12:36:44.948Z,90496.00
2017-12-11T12:37:44.943Z,91200.00
2017-12-11T12:38:44.917Z,92928.00
2017-12-11T12:39:44.934Z,94880.00
2017-12-11T12:40:44.927Z,95008.00
2017-12-11T12:41:44.915Z,94496.00
2017-12-11T12:42:44.895Z,94208.00
2017-12-11T12:43:44.897Z,93024.00
2017-12-11T12:44:44.875Z,93664.00